sensor_id;sensor_type;location;lat;lon;timestamp;P1;durP1;ratioP1;P2;durP2;ratioP2
59970;SDS011;45825;45.434;9.116;2023-02-28T00:01:11;14.45;;;9.13;;
59970;SDS011;45825;45.434;9.116;2023-02-28T00:03:37;14.25;;;9.77;;
59970;SDS011;45825;45.434;9.116;2023-02-28T00:06:03;17.08;;;10.23;;
59970;SDS011;45825;45.434;9.116;2023-02-28T00:08:29;12.73;;;9.38;;
59970;SDS011;45825;45.434;9.116;2023-02-28T00:10:55;15.05;;;10.05;;
59970;SDS011;45825;45.434;9.116;2023-02-28T00:13:20;16.30;;;10.40;;
59970;SDS011;45825;45.434;9.116;2023-02-28T00:15:46;13.73;;;9.45;;
59970;SDS011;45825;45.434;9.116;2023-02-28T00:18:11;17.40;;;10.52;;
59970;SDS011;45825;45.434;9.116;2023-02-28T00:20:37;14.68;;;9.75;;
59970;SDS011;45825;45.434;9.116;2023-02-28T00:23:02;14.20;;;9.98;;
59970;SDS011;45825;45.434;9.116;2023-02-28T00:25:28;13.80;;;9.50;;
59970;SDS011;45825;45.434;9.116;2023-02-28T00:27:53;15.75;;;9.70;;
59970;SDS011;45825;45.434;9.116;2023-02-28T00:30:20;12.80;;;9.40;;
59970;SDS011;45825;45.434;9.116;2023-02-28T00:32:47;15.82;;;9.52;;
59970;SDS011;45825;45.434;9.116;2023-02-28T00:35:13;15.65;;;9.70;;
59970;SDS011;45825;45.434;9.116;2023-02-28T00:37:38;15.82;;;9.15;;
59970;SDS011;45825;45.434;9.116;2023-02-28T00:40:04;15.40;;;9.93;;
59970;SDS011;45825;45.434;9.116;2023-02-28T00:42:31;14.10;;;9.13;;
59970;SDS011;45825;45.434;9.116;2023-02-28T00:44:56;16.48;;;9.35;;
59970;SDS011;45825;45.434;9.116;2023-02-28T00:47:22;16.30;;;9.25;;
59970;SDS011;45825;45.434;9.116;2023-02-28T00:49:47;13.50;;;8.57;;
59970;SDS011;45825;45.434;9.116;2023-02-28T00:52:12;12.70;;;8.45;;
59970;SDS011;45825;45.434;9.116;2023-02-28T00:54:38;12.30;;;8.38;;
59970;SDS011;45825;45.434;9.116;2023-02-28T00:57:03;14.95;;;8.43;;
59970;SDS011;45825;45.434;9.116;2023-02-28T00:59:28;15.20;;;8.52;;
59970;SDS011;45825;45.434;9.116;2023-02-28T01:01:53;12.77;;;7.78;;
59970;SDS011;45825;45.434;9.116;2023-02-28T01:04:19;12.85;;;7.88;;
59970;SDS011;45825;45.434;9.116;2023-02-28T01:06:44;13.07;;;7.53;;
59970;SDS011;45825;45.434;9.116;2023-02-28T01:09:10;12.80;;;7.32;;
59970;SDS011;45825;45.434;9.116;2023-02-28T01:11:36;12.65;;;7.22;;
59970;SDS011;45825;45.434;9.116;2023-02-28T01:14:02;13.00;;;7.65;;
59970;SDS011;45825;45.434;9.116;2023-02-28T01:16:29;11.18;;;7.13;;
59970;SDS011;45825;45.434;9.116;2023-02-28T01:18:54;13.27;;;7.88;;
59970;SDS011;45825;45.434;9.116;2023-02-28T01:21:20;12.80;;;7.90;;
59970;SDS011;45825;45.434;9.116;2023-02-28T01:23:46;12.02;;;7.32;;
59970;SDS011;45825;45.434;9.116;2023-02-28T01:26:14;12.23;;;7.28;;
59970;SDS011;45825;45.434;9.116;2023-02-28T01:28:44;12.47;;;6.83;;
59970;SDS011;45825;45.434;9.116;2023-02-28T01:31:10;11.73;;;6.97;;
59970;SDS011;45825;45.434;9.116;2023-02-28T01:33:36;12.15;;;7.55;;
59970;SDS011;45825;45.434;9.116;2023-02-28T01:36:05;11.32;;;7.40;;
59970;SDS011;45825;45.434;9.116;2023-02-28T01:38:38;11.40;;;7.13;;
59970;SDS011;45825;45.434;9.116;2023-02-28T01:41:04;12.20;;;7.10;;
59970;SDS011;45825;45.434;9.116;2023-02-28T01:46:18;16.80;;;7.32;;
59970;SDS011;45825;45.434;9.116;2023-02-28T01:48:48;13.07;;;7.55;;
59970;SDS011;45825;45.434;9.116;2023-02-28T01:51:18;11.13;;;7.00;;
59970;SDS011;45825;45.434;9.116;2023-02-28T01:53:51;13.55;;;7.93;;
59970;SDS011;45825;45.434;9.116;2023-02-28T01:56:20;14.32;;;6.97;;
59970;SDS011;45825;45.434;9.116;2023-02-28T01:58:51;11.88;;;6.60;;
59970;SDS011;45825;45.434;9.116;2023-02-28T02:01:18;10.60;;;6.65;;
59970;SDS011;45825;45.434;9.116;2023-02-28T02:03:51;11.98;;;7.22;;
59970;SDS011;45825;45.434;9.116;2023-02-28T02:06:24;13.00;;;7.57;;
59970;SDS011;45825;45.434;9.116;2023-02-28T02:08:53;12.70;;;7.32;;
59970;SDS011;45825;45.434;9.116;2023-02-28T02:11:20;11.40;;;7.32;;
59970;SDS011;45825;45.434;9.116;2023-02-28T02:25:11;13.55;;;6.80;;
59970;SDS011;45825;45.434;9.116;2023-02-28T02:36:06;12.60;;;7.63;;
59970;SDS011;45825;45.434;9.116;2023-02-28T02:38:52;13.93;;;7.47;;
59970;SDS011;45825;45.434;9.116;2023-02-28T02:41:36;11.93;;;7.40;;
59970;SDS011;45825;45.434;9.116;2023-02-28T02:46:57;12.35;;;7.38;;
59970;SDS011;45825;45.434;9.116;2023-02-28T02:49:28;12.30;;;7.85;;
59970;SDS011;45825;45.434;9.116;2023-02-28T02:52:02;13.50;;;7.25;;
59970;SDS011;45825;45.434;9.116;2023-02-28T02:54:32;13.85;;;8.05;;
59970;SDS011;45825;45.434;9.116;2023-02-28T02:57:01;12.60;;;7.55;;
59970;SDS011;45825;45.434;9.116;2023-02-28T02:59:30;12.27;;;7.60;;
59970;SDS011;45825;45.434;9.116;2023-02-28T03:01:58;12.40;;;7.82;;
59970;SDS011;45825;45.434;9.116;2023-02-28T03:04:27;12.07;;;7.30;;
59970;SDS011;45825;45.434;9.116;2023-02-28T03:06:58;13.10;;;7.65;;
59970;SDS011;45825;45.434;9.116;2023-02-28T03:09:24;12.60;;;7.70;;
59970;SDS011;45825;45.434;9.116;2023-02-28T03:11:52;14.55;;;7.82;;
59970;SDS011;45825;45.434;9.116;2023-02-28T03:25:56;10.57;;;6.88;;
59970;SDS011;45825;45.434;9.116;2023-02-28T03:28:31;12.77;;;6.85;;
59970;SDS011;45825;45.434;9.116;2023-02-28T03:33:47;10.88;;;6.60;;
59970;SDS011;45825;45.434;9.116;2023-02-28T03:36:20;11.50;;;6.60;;
59970;SDS011;45825;45.434;9.116;2023-02-28T03:38:50;10.43;;;6.57;;
59970;SDS011;45825;45.434;9.116;2023-02-28T03:41:24;11.40;;;6.90;;
59970;SDS011;45825;45.434;9.116;2023-02-28T03:44:03;12.52;;;7.38;;
59970;SDS011;45825;45.434;9.116;2023-02-28T03:46:34;11.35;;;7.78;;
59970;SDS011;45825;45.434;9.116;2023-02-28T03:51:44;10.68;;;6.88;;
59970;SDS011;45825;45.434;9.116;2023-02-28T03:54:12;12.95;;;7.47;;
59970;SDS011;45825;45.434;9.116;2023-02-28T03:56:43;9.93;;;6.60;;
59970;SDS011;45825;45.434;9.116;2023-02-28T03:59:28;11.82;;;7.40;;
59970;SDS011;45825;45.434;9.116;2023-02-28T04:01:57;12.70;;;7.32;;
59970;SDS011;45825;45.434;9.116;2023-02-28T04:04:23;13.68;;;7.25;;
59970;SDS011;45825;45.434;9.116;2023-02-28T04:06:50;14.27;;;7.47;;
59970;SDS011;45825;45.434;9.116;2023-02-28T04:09:16;12.73;;;7.65;;
59970;SDS011;45825;45.434;9.116;2023-02-28T04:11:42;10.18;;;6.68;;
59970;SDS011;45825;45.434;9.116;2023-02-28T04:14:11;11.93;;;7.28;;
59970;SDS011;45825;45.434;9.116;2023-02-28T04:16:38;11.85;;;7.32;;
59970;SDS011;45825;45.434;9.116;2023-02-28T04:19:06;10.38;;;7.57;;
59970;SDS011;45825;45.434;9.116;2023-02-28T04:21:36;10.90;;;7.50;;
59970;SDS011;45825;45.434;9.116;2023-02-28T04:24:07;12.68;;;7.70;;
59970;SDS011;45825;45.434;9.116;2023-02-28T04:26:38;11.60;;;7.07;;
59970;SDS011;45825;45.434;9.116;2023-02-28T04:29:06;13.52;;;7.88;;
59970;SDS011;45825;45.434;9.116;2023-02-28T04:31:32;12.43;;;7.65;;
59970;SDS011;45825;45.434;9.116;2023-02-28T04:33:58;10.93;;;7.30;;
59970;SDS011;45825;45.434;9.116;2023-02-28T04:36:25;12.20;;;8.00;;
59970;SDS011;45825;45.434;9.116;2023-02-28T04:38:50;11.43;;;7.13;;
59970;SDS011;45825;45.434;9.116;2023-02-28T04:41:15;11.40;;;7.57;;
59970;SDS011;45825;45.434;9.116;2023-02-28T04:43:42;11.40;;;6.93;;
59970;SDS011;45825;45.434;9.116;2023-02-28T04:46:07;12.18;;;7.32;;
59970;SDS011;45825;45.434;9.116;2023-02-28T04:48:37;12.00;;;7.45;;
59970;SDS011;45825;45.434;9.116;2023-02-28T04:51:04;11.10;;;7.07;;
59970;SDS011;45825;45.434;9.116;2023-02-28T04:53:35;11.57;;;7.37;;
59970;SDS011;45825;45.434;9.116;2023-02-28T04:56:02;11.52;;;7.40;;
59970;SDS011;45825;45.434;9.116;2023-02-28T04:58:28;11.90;;;7.80;;
59970;SDS011;45825;45.434;9.116;2023-02-28T05:00:54;12.25;;;7.55;;
59970;SDS011;45825;45.434;9.116;2023-02-28T05:03:27;13.35;;;7.78;;
59970;SDS011;45825;45.434;9.116;2023-02-28T05:05:53;11.13;;;7.07;;
59970;SDS011;45825;45.434;9.116;2023-02-28T05:08:18;12.65;;;7.45;;
59970;SDS011;45825;45.434;9.116;2023-02-28T05:10:43;11.77;;;6.93;;
59970;SDS011;45825;45.434;9.116;2023-02-28T05:13:11;11.43;;;7.10;;
59970;SDS011;45825;45.434;9.116;2023-02-28T05:15:37;13.48;;;7.20;;
59970;SDS011;45825;45.434;9.116;2023-02-28T05:18:02;12.88;;;7.50;;
59970;SDS011;45825;45.434;9.116;2023-02-28T05:20:27;12.32;;;7.53;;
59970;SDS011;45825;45.434;9.116;2023-02-28T05:22:53;11.15;;;7.53;;
59970;SDS011;45825;45.434;9.116;2023-02-28T05:25:19;12.00;;;7.45;;
59970;SDS011;45825;45.434;9.116;2023-02-28T05:27:46;11.73;;;7.65;;
59970;SDS011;45825;45.434;9.116;2023-02-28T05:30:12;13.43;;;7.68;;
59970;SDS011;45825;45.434;9.116;2023-02-28T05:32:37;12.05;;;7.70;;
59970;SDS011;45825;45.434;9.116;2023-02-28T05:35:03;11.82;;;7.78;;
59970;SDS011;45825;45.434;9.116;2023-02-28T05:37:29;12.43;;;7.82;;
59970;SDS011;45825;45.434;9.116;2023-02-28T05:39:54;13.65;;;8.02;;
59970;SDS011;45825;45.434;9.116;2023-02-28T05:42:20;12.25;;;7.32;;
59970;SDS011;45825;45.434;9.116;2023-02-28T05:44:45;13.35;;;7.40;;
59970;SDS011;45825;45.434;9.116;2023-02-28T05:47:11;11.77;;;7.78;;
59970;SDS011;45825;45.434;9.116;2023-02-28T05:49:39;11.40;;;7.10;;
59970;SDS011;45825;45.434;9.116;2023-02-28T05:52:04;11.60;;;7.05;;
59970;SDS011;45825;45.434;9.116;2023-02-28T05:54:30;13.55;;;7.43;;
59970;SDS011;45825;45.434;9.116;2023-02-28T05:56:55;12.60;;;7.93;;
59970;SDS011;45825;45.434;9.116;2023-02-28T05:59:20;11.32;;;8.23;;
59970;SDS011;45825;45.434;9.116;2023-02-28T06:01:45;13.55;;;8.10;;
59970;SDS011;45825;45.434;9.116;2023-02-28T06:04:15;12.80;;;7.95;;
59970;SDS011;45825;45.434;9.116;2023-02-28T06:06:44;14.05;;;9.50;;
59970;SDS011;45825;45.434;9.116;2023-02-28T06:09:10;11.73;;;7.70;;
59970;SDS011;45825;45.434;9.116;2023-02-28T06:11:36;12.15;;;7.88;;
59970;SDS011;45825;45.434;9.116;2023-02-28T06:14:01;20.10;;;9.65;;
59970;SDS011;45825;45.434;9.116;2023-02-28T06:16:29;13.07;;;8.50;;
59970;SDS011;45825;45.434;9.116;2023-02-28T06:18:59;12.82;;;8.07;;
59970;SDS011;45825;45.434;9.116;2023-02-28T06:21:26;11.95;;;7.75;;
59970;SDS011;45825;45.434;9.116;2023-02-28T06:23:52;14.27;;;8.35;;
59970;SDS011;45825;45.434;9.116;2023-02-28T06:26:17;12.60;;;8.38;;
59970;SDS011;45825;45.434;9.116;2023-02-28T06:28:43;12.82;;;8.88;;
59970;SDS011;45825;45.434;9.116;2023-02-28T06:31:09;11.85;;;8.05;;
59970;SDS011;45825;45.434;9.116;2023-02-28T06:33:36;13.75;;;8.73;;
59970;SDS011;45825;45.434;9.116;2023-02-28T06:36:03;11.90;;;8.25;;
59970;SDS011;45825;45.434;9.116;2023-02-28T06:38:29;12.85;;;8.27;;
59970;SDS011;45825;45.434;9.116;2023-02-28T06:40:55;12.75;;;8.55;;
59970;SDS011;45825;45.434;9.116;2023-02-28T06:43:22;12.98;;;8.43;;
59970;SDS011;45825;45.434;9.116;2023-02-28T06:45:47;15.77;;;8.80;;
59970;SDS011;45825;45.434;9.116;2023-02-28T06:48:13;18.23;;;8.90;;
59970;SDS011;45825;45.434;9.116;2023-02-28T06:50:38;11.82;;;8.23;;
59970;SDS011;45825;45.434;9.116;2023-02-28T06:53:03;14.68;;;8.70;;
59970;SDS011;45825;45.434;9.116;2023-02-28T06:55:29;12.95;;;8.52;;
59970;SDS011;45825;45.434;9.116;2023-02-28T06:57:54;13.43;;;9.20;;
59970;SDS011;45825;45.434;9.116;2023-02-28T07:00:20;15.73;;;9.40;;
59970;SDS011;45825;45.434;9.116;2023-02-28T07:02:46;14.98;;;8.98;;
59970;SDS011;45825;45.434;9.116;2023-02-28T07:05:12;14.68;;;8.65;;
59970;SDS011;45825;45.434;9.116;2023-02-28T07:07:37;13.68;;;9.00;;
59970;SDS011;45825;45.434;9.116;2023-02-28T07:10:05;18.55;;;9.18;;
59970;SDS011;45825;45.434;9.116;2023-02-28T07:12:31;14.90;;;9.23;;
59970;SDS011;45825;45.434;9.116;2023-02-28T07:14:56;15.90;;;9.45;;
59970;SDS011;45825;45.434;9.116;2023-02-28T07:17:22;15.43;;;8.85;;
59970;SDS011;45825;45.434;9.116;2023-02-28T07:19:47;16.27;;;9.75;;
59970;SDS011;45825;45.434;9.116;2023-02-28T07:22:12;17.10;;;9.68;;
59970;SDS011;45825;45.434;9.116;2023-02-28T07:24:38;17.55;;;9.57;;
59970;SDS011;45825;45.434;9.116;2023-02-28T07:27:03;15.07;;;10.25;;
59970;SDS011;45825;45.434;9.116;2023-02-28T07:29:29;14.88;;;10.30;;
59970;SDS011;45825;45.434;9.116;2023-02-28T07:31:54;16.23;;;10.23;;
59970;SDS011;45825;45.434;9.116;2023-02-28T07:34:21;25.75;;;11.00;;
59970;SDS011;45825;45.434;9.116;2023-02-28T07:36:47;14.43;;;9.95;;
59970;SDS011;45825;45.434;9.116;2023-02-28T07:39:12;16.85;;;10.80;;
59970;SDS011;45825;45.434;9.116;2023-02-28T07:41:37;16.52;;;10.23;;
59970;SDS011;45825;45.434;9.116;2023-02-28T07:44:08;15.82;;;9.95;;
59970;SDS011;45825;45.434;9.116;2023-02-28T07:46:34;17.27;;;11.02;;
59970;SDS011;45825;45.434;9.116;2023-02-28T07:49:00;17.13;;;11.20;;
59970;SDS011;45825;45.434;9.116;2023-02-28T07:51:27;15.70;;;10.82;;
59970;SDS011;45825;45.434;9.116;2023-02-28T07:53:53;15.73;;;10.25;;
59970;SDS011;45825;45.434;9.116;2023-02-28T07:56:19;21.10;;;11.05;;
59970;SDS011;45825;45.434;9.116;2023-02-28T07:58:44;16.95;;;11.65;;
59970;SDS011;45825;45.434;9.116;2023-02-28T08:01:10;16.52;;;10.38;;
59970;SDS011;45825;45.434;9.116;2023-02-28T08:03:36;16.98;;;11.02;;
59970;SDS011;45825;45.434;9.116;2023-02-28T08:06:03;17.20;;;10.98;;
59970;SDS011;45825;45.434;9.116;2023-02-28T08:08:30;19.10;;;11.48;;
59970;SDS011;45825;45.434;9.116;2023-02-28T08:10:57;20.77;;;11.65;;
59970;SDS011;45825;45.434;9.116;2023-02-28T08:13:25;17.20;;;11.38;;
59970;SDS011;45825;45.434;9.116;2023-02-28T08:15:52;20.27;;;12.15;;
59970;SDS011;45825;45.434;9.116;2023-02-28T08:18:18;17.15;;;11.88;;
59970;SDS011;45825;45.434;9.116;2023-02-28T08:20:44;23.77;;;13.38;;
59970;SDS011;45825;45.434;9.116;2023-02-28T08:23:09;19.83;;;11.10;;
59970;SDS011;45825;45.434;9.116;2023-02-28T08:25:34;17.67;;;12.05;;
59970;SDS011;45825;45.434;9.116;2023-02-28T08:28:00;17.73;;;11.57;;
59970;SDS011;45825;45.434;9.116;2023-02-28T08:30:25;19.55;;;12.00;;
59970;SDS011;45825;45.434;9.116;2023-02-28T08:32:51;18.98;;;11.73;;
59970;SDS011;45825;45.434;9.116;2023-02-28T08:35:16;19.90;;;11.27;;
59970;SDS011;45825;45.434;9.116;2023-02-28T08:37:41;22.75;;;12.13;;
59970;SDS011;45825;45.434;9.116;2023-02-28T08:40:07;19.20;;;11.73;;
59970;SDS011;45825;45.434;9.116;2023-02-28T08:42:33;18.52;;;12.18;;
59970;SDS011;45825;45.434;9.116;2023-02-28T08:44:58;17.05;;;11.40;;
59970;SDS011;45825;45.434;9.116;2023-02-28T08:47:24;18.80;;;12.90;;
59970;SDS011;45825;45.434;9.116;2023-02-28T08:49:49;18.40;;;12.00;;
59970;SDS011;45825;45.434;9.116;2023-02-28T08:52:14;17.88;;;12.07;;
59970;SDS011;45825;45.434;9.116;2023-02-28T08:54:39;16.52;;;12.23;;
59970;SDS011;45825;45.434;9.116;2023-02-28T08:57:05;20.15;;;12.18;;
59970;SDS011;45825;45.434;9.116;2023-02-28T08:59:31;19.92;;;11.73;;
59970;SDS011;45825;45.434;9.116;2023-02-28T09:01:57;16.95;;;11.95;;
59970;SDS011;45825;45.434;9.116;2023-02-28T09:04:22;18.20;;;11.07;;
59970;SDS011;45825;45.434;9.116;2023-02-28T09:06:48;15.23;;;8.82;;
59970;SDS011;45825;45.434;9.116;2023-02-28T09:09:14;13.10;;;8.20;;
59970;SDS011;45825;45.434;9.116;2023-02-28T09:11:39;12.60;;;8.70;;
59970;SDS011;45825;45.434;9.116;2023-02-28T09:14:05;11.95;;;8.30;;
59970;SDS011;45825;45.434;9.116;2023-02-28T09:16:33;12.32;;;8.10;;
59970;SDS011;45825;45.434;9.116;2023-02-28T09:18:59;12.07;;;8.18;;
59970;SDS011;45825;45.434;9.116;2023-02-28T09:21:25;13.15;;;8.43;;
59970;SDS011;45825;45.434;9.116;2023-02-28T09:23:50;13.57;;;8.63;;
59970;SDS011;45825;45.434;9.116;2023-02-28T09:26:20;13.25;;;8.43;;
59970;SDS011;45825;45.434;9.116;2023-02-28T09:28:48;13.40;;;8.90;;
59970;SDS011;45825;45.434;9.116;2023-02-28T09:31:18;15.20;;;9.60;;
59970;SDS011;45825;45.434;9.116;2023-02-28T09:33:49;14.15;;;8.80;;
59970;SDS011;45825;45.434;9.116;2023-02-28T09:36:17;13.25;;;9.13;;
59970;SDS011;45825;45.434;9.116;2023-02-28T09:38:42;12.63;;;8.77;;
59970;SDS011;45825;45.434;9.116;2023-02-28T09:41:19;13.13;;;8.50;;
59970;SDS011;45825;45.434;9.116;2023-02-28T09:43:52;13.57;;;9.10;;
59970;SDS011;45825;45.434;9.116;2023-02-28T09:48:59;15.18;;;9.60;;
59970;SDS011;45825;45.434;9.116;2023-02-28T09:54:16;13.52;;;9.13;;
59970;SDS011;45825;45.434;9.116;2023-02-28T09:56:51;13.43;;;9.52;;
59970;SDS011;45825;45.434;9.116;2023-02-28T10:01:52;17.13;;;9.98;;
59970;SDS011;45825;45.434;9.116;2023-02-28T10:07:37;14.93;;;9.52;;
59970;SDS011;45825;45.434;9.116;2023-02-28T10:13:05;14.10;;;9.60;;
59970;SDS011;45825;45.434;9.116;2023-02-28T10:15:38;13.98;;;10.07;;
59970;SDS011;45825;45.434;9.116;2023-02-28T10:18:04;14.80;;;10.05;;
59970;SDS011;45825;45.434;9.116;2023-02-28T10:20:35;16.43;;;11.57;;
59970;SDS011;45825;45.434;9.116;2023-02-28T10:23:07;14.45;;;10.82;;
59970;SDS011;45825;45.434;9.116;2023-02-28T10:26:00;16.77;;;10.82;;
59970;SDS011;45825;45.434;9.116;2023-02-28T10:28:37;14.27;;;10.18;;
59970;SDS011;45825;45.434;9.116;2023-02-28T10:31:03;17.50;;;10.77;;
59970;SDS011;45825;45.434;9.116;2023-02-28T10:33:33;14.88;;;10.00;;
59970;SDS011;45825;45.434;9.116;2023-02-28T10:36:00;14.35;;;10.07;;
59970;SDS011;45825;45.434;9.116;2023-02-28T10:38:29;15.07;;;10.38;;
59970;SDS011;45825;45.434;9.116;2023-02-28T10:41:05;13.63;;;9.88;;
59970;SDS011;45825;45.434;9.116;2023-02-28T10:43:36;16.00;;;11.10;;
59970;SDS011;45825;45.434;9.116;2023-02-28T10:48:38;15.30;;;10.85;;
59970;SDS011;45825;45.434;9.116;2023-02-28T10:51:04;15.52;;;11.13;;
59970;SDS011;45825;45.434;9.116;2023-02-28T10:53:33;17.02;;;10.95;;
59970;SDS011;45825;45.434;9.116;2023-02-28T10:56:03;18.80;;;11.07;;
59970;SDS011;45825;45.434;9.116;2023-02-28T11:01:48;15.65;;;10.85;;
59970;SDS011;45825;45.434;9.116;2023-02-28T11:04:19;14.93;;;10.57;;
59970;SDS011;45825;45.434;9.116;2023-02-28T11:09:44;16.48;;;11.75;;
59970;SDS011;45825;45.434;9.116;2023-02-28T11:12:28;16.02;;;11.38;;
59970;SDS011;45825;45.434;9.116;2023-02-28T11:15:23;15.45;;;10.57;;
59970;SDS011;45825;45.434;9.116;2023-02-28T11:20:55;20.10;;;12.60;;
59970;SDS011;45825;45.434;9.116;2023-02-28T11:23:28;19.42;;;13.50;;
59970;SDS011;45825;45.434;9.116;2023-02-28T11:25:56;16.85;;;13.00;;
59970;SDS011;45825;45.434;9.116;2023-02-28T11:33:51;19.60;;;14.23;;
59970;SDS011;45825;45.434;9.116;2023-02-28T11:36:28;17.65;;;12.90;;
59970;SDS011;45825;45.434;9.116;2023-02-28T11:38:56;16.20;;;12.18;;
59970;SDS011;45825;45.434;9.116;2023-02-28T11:41:36;19.40;;;12.35;;
59970;SDS011;45825;45.434;9.116;2023-02-28T11:44:06;17.83;;;13.18;;
59970;SDS011;45825;45.434;9.116;2023-02-28T11:47:00;17.58;;;13.48;;
59970;SDS011;45825;45.434;9.116;2023-02-28T11:49:38;17.08;;;12.93;;
59970;SDS011;45825;45.434;9.116;2023-02-28T11:55:02;16.65;;;12.43;;
59970;SDS011;45825;45.434;9.116;2023-02-28T12:06:33;19.25;;;12.38;;
59970;SDS011;45825;45.434;9.116;2023-02-28T12:17:01;16.95;;;12.77;;
59970;SDS011;45825;45.434;9.116;2023-02-28T12:19:43;17.75;;;12.82;;
59970;SDS011;45825;45.434;9.116;2023-02-28T12:27:47;14.88;;;12.80;;
59970;SDS011;45825;45.434;9.116;2023-02-28T12:32:44;15.27;;;12.80;;
59970;SDS011;45825;45.434;9.116;2023-02-28T12:35:23;17.00;;;12.88;;
59970;SDS011;45825;45.434;9.116;2023-02-28T12:37:57;17.58;;;14.10;;
59970;SDS011;45825;45.434;9.116;2023-02-28T12:40:32;16.35;;;14.05;;
59970;SDS011;45825;45.434;9.116;2023-02-28T12:43:08;15.82;;;13.50;;
59970;SDS011;45825;45.434;9.116;2023-02-28T12:45:41;16.02;;;13.10;;
59970;SDS011;45825;45.434;9.116;2023-02-28T12:48:14;16.55;;;13.60;;
59970;SDS011;45825;45.434;9.116;2023-02-28T12:50:44;17.92;;;14.65;;
59970;SDS011;45825;45.434;9.116;2023-02-28T12:56:08;16.65;;;14.85;;
59970;SDS011;45825;45.434;9.116;2023-02-28T12:58:39;16.63;;;14.20;;
59970;SDS011;45825;45.434;9.116;2023-02-28T13:01:21;17.38;;;14.68;;
59970;SDS011;45825;45.434;9.116;2023-02-28T13:06:51;17.95;;;15.18;;
59970;SDS011;45825;45.434;9.116;2023-02-28T13:09:36;18.63;;;14.25;;
59970;SDS011;45825;45.434;9.116;2023-02-28T13:12:12;18.58;;;15.20;;
59970;SDS011;45825;45.434;9.116;2023-02-28T13:14:41;18.98;;;15.35;;
59970;SDS011;45825;45.434;9.116;2023-02-28T13:22:20;17.35;;;15.02;;
59970;SDS011;45825;45.434;9.116;2023-02-28T13:25:00;18.50;;;14.93;;
59970;SDS011;45825;45.434;9.116;2023-02-28T13:27:36;18.65;;;15.27;;
59970;SDS011;45825;45.434;9.116;2023-02-28T13:38:51;18.83;;;16.50;;
59970;SDS011;45825;45.434;9.116;2023-02-28T13:43:59;18.70;;;15.82;;
59970;SDS011;45825;45.434;9.116;2023-02-28T13:46:30;19.55;;;16.35;;
59970;SDS011;45825;45.434;9.116;2023-02-28T13:51:49;19.27;;;15.48;;
59970;SDS011;45825;45.434;9.116;2023-02-28T14:00:16;19.23;;;16.42;;
59970;SDS011;45825;45.434;9.116;2023-02-28T14:06:16;20.80;;;15.73;;
59970;SDS011;45825;45.434;9.116;2023-02-28T14:08:52;20.98;;;15.50;;
59970;SDS011;45825;45.434;9.116;2023-02-28T14:11:34;21.23;;;16.58;;
59970;SDS011;45825;45.434;9.116;2023-02-28T14:14:02;20.33;;;16.05;;
59970;SDS011;45825;45.434;9.116;2023-02-28T14:16:43;21.75;;;16.52;;
59970;SDS011;45825;45.434;9.116;2023-02-28T14:21:36;21.03;;;16.53;;
59970;SDS011;45825;45.434;9.116;2023-02-28T14:26:49;19.63;;;16.17;;
59970;SDS011;45825;45.434;9.116;2023-02-28T14:29:22;22.48;;;16.88;;
59970;SDS011;45825;45.434;9.116;2023-02-28T14:34:44;21.23;;;16.08;;
59970;SDS011;45825;45.434;9.116;2023-02-28T14:37:32;20.88;;;15.25;;
59970;SDS011;45825;45.434;9.116;2023-02-28T14:40:02;22.40;;;17.13;;
59970;SDS011;45825;45.434;9.116;2023-02-28T14:42:36;20.48;;;15.65;;
59970;SDS011;45825;45.434;9.116;2023-02-28T14:45:18;21.35;;;17.08;;
59970;SDS011;45825;45.434;9.116;2023-02-28T14:47:45;20.48;;;16.33;;
59970;SDS011;45825;45.434;9.116;2023-02-28T14:50:18;20.38;;;15.57;;
59970;SDS011;45825;45.434;9.116;2023-02-28T14:52:44;18.95;;;15.57;;
59970;SDS011;45825;45.434;9.116;2023-02-28T14:55:12;20.45;;;16.85;;
59970;SDS011;45825;45.434;9.116;2023-02-28T15:00:16;19.98;;;15.75;;
59970;SDS011;45825;45.434;9.116;2023-02-28T15:02:50;20.17;;;15.77;;
59970;SDS011;45825;45.434;9.116;2023-02-28T15:05:19;20.58;;;16.33;;
59970;SDS011;45825;45.434;9.116;2023-02-28T15:07:49;20.98;;;16.02;;
59970;SDS011;45825;45.434;9.116;2023-02-28T15:10:27;19.23;;;15.75;;
59970;SDS011;45825;45.434;9.116;2023-02-28T15:12:53;21.23;;;16.27;;
59970;SDS011;45825;45.434;9.116;2023-02-28T15:15:21;19.92;;;16.40;;
59970;SDS011;45825;45.434;9.116;2023-02-28T15:17:50;21.33;;;16.90;;
59970;SDS011;45825;45.434;9.116;2023-02-28T15:20:19;19.30;;;16.02;;
59970;SDS011;45825;45.434;9.116;2023-02-28T15:22:46;20.58;;;16.20;;
59970;SDS011;45825;45.434;9.116;2023-02-28T15:25:15;21.75;;;16.27;;
59970;SDS011;45825;45.434;9.116;2023-02-28T15:27:45;22.55;;;16.20;;
59970;SDS011;45825;45.434;9.116;2023-02-28T15:30:15;20.55;;;16.17;;
59970;SDS011;45825;45.434;9.116;2023-02-28T15:32:45;21.77;;;16.13;;
59970;SDS011;45825;45.434;9.116;2023-02-28T15:35:29;25.08;;;15.95;;
59970;SDS011;45825;45.434;9.116;2023-02-28T15:38:00;19.88;;;16.05;;
59970;SDS011;45825;45.434;9.116;2023-02-28T15:40:41;22.60;;;16.38;;
59970;SDS011;45825;45.434;9.116;2023-02-28T15:50:54;22.05;;;16.60;;
59970;SDS011;45825;45.434;9.116;2023-02-28T15:53:23;24.05;;;16.55;;
59970;SDS011;45825;45.434;9.116;2023-02-28T15:55:54;22.88;;;16.05;;
59970;SDS011;45825;45.434;9.116;2023-02-28T15:58:22;21.17;;;16.08;;
59970;SDS011;45825;45.434;9.116;2023-02-28T16:00:59;20.80;;;16.15;;
59970;SDS011;45825;45.434;9.116;2023-02-28T16:03:50;20.90;;;15.77;;
59970;SDS011;45825;45.434;9.116;2023-02-28T16:08:55;21.90;;;16.38;;
59970;SDS011;45825;45.434;9.116;2023-02-28T16:11:21;20.55;;;15.75;;
59970;SDS011;45825;45.434;9.116;2023-02-28T16:13:47;20.75;;;15.98;;
59970;SDS011;45825;45.434;9.116;2023-02-28T16:16:17;21.38;;;16.10;;
59970;SDS011;45825;45.434;9.116;2023-02-28T16:18:44;22.98;;;15.90;;
59970;SDS011;45825;45.434;9.116;2023-02-28T16:21:10;20.98;;;16.52;;
59970;SDS011;45825;45.434;9.116;2023-02-28T16:23:35;23.48;;;17.60;;
59970;SDS011;45825;45.434;9.116;2023-02-28T16:26:02;20.75;;;15.77;;
59970;SDS011;45825;45.434;9.116;2023-02-28T16:28:30;22.98;;;16.63;;
59970;SDS011;45825;45.434;9.116;2023-02-28T16:31:01;20.85;;;16.02;;
59970;SDS011;45825;45.434;9.116;2023-02-28T16:33:31;21.48;;;16.02;;
59970;SDS011;45825;45.434;9.116;2023-02-28T16:35:58;23.38;;;16.70;;
59970;SDS011;45825;45.434;9.116;2023-02-28T16:38:23;21.60;;;15.82;;
59970;SDS011;45825;45.434;9.116;2023-02-28T16:40:49;24.38;;;16.98;;
59970;SDS011;45825;45.434;9.116;2023-02-28T16:43:18;21.40;;;15.82;;
59970;SDS011;45825;45.434;9.116;2023-02-28T16:45:46;22.33;;;16.45;;
59970;SDS011;45825;45.434;9.116;2023-02-28T16:48:13;22.27;;;15.93;;
59970;SDS011;45825;45.434;9.116;2023-02-28T16:50:40;20.20;;;15.70;;
59970;SDS011;45825;45.434;9.116;2023-02-28T16:53:06;22.50;;;16.27;;
59970;SDS011;45825;45.434;9.116;2023-02-28T16:55:31;23.58;;;16.73;;
59970;SDS011;45825;45.434;9.116;2023-02-28T16:57:58;23.27;;;16.65;;
59970;SDS011;45825;45.434;9.116;2023-02-28T17:00:26;21.90;;;16.42;;
59970;SDS011;45825;45.434;9.116;2023-02-28T17:02:53;19.95;;;15.50;;
59970;SDS011;45825;45.434;9.116;2023-02-28T17:05:19;21.65;;;16.23;;
59970;SDS011;45825;45.434;9.116;2023-02-28T17:07:45;21.17;;;15.23;;
59970;SDS011;45825;45.434;9.116;2023-02-28T17:10:19;21.13;;;15.95;;
59970;SDS011;45825;45.434;9.116;2023-02-28T17:12:49;19.83;;;15.30;;
59970;SDS011;45825;45.434;9.116;2023-02-28T17:15:15;23.60;;;16.75;;